Burnet, TX (78611)

9:07 PM CST on February 12, 2016 (GMT -0600)
Eastern edge of the city of Burnet | | Change Station
CLOSE
Current Station
Personal Weather Station
Location: Burnet, TX
Elevation: 1381 ft
Nearby Weather Stations

Elev 1381 ft 30.76 °N, 98.21 °W | Updated 2 seconds ago

Clear
Clear
58.3 °F
Feels Like 58.3 °F
N
0.2
Wind Variable Wind from WSW
Gusts 2.5 mph

Today
High -- | Low -- °F
--% Chance of Precip.
Yesterday
High -- | Low -- °F
Precip. -- in
Pressure 30.30 in
Visibility 10.0 miles
Clouds Clear
Dew Point 36 °F
Humidity 44%
Rainfall in
Snow Depth Not available.
7:16 AM 6:18 PM
Waxing Crescent, 26% visible
METAR KBMQ 130253Z AUTO 02007KT 10SM CLR 16/02 A3032 RMK AO2 SLP259 T01560017 51019
Pressure 30.30 in
Visibility 10.0 miles
Clouds Clear
Dew Point 36 °F
Humidity 44%
Rainfall in
Snow Depth Not available.
7:16 AM 6:18 PM
Waxing Crescent, 26% visible
METAR KBMQ 130253Z AUTO 02007KT 10SM CLR 16/02 A3032 RMK AO2 SLP259 T01560017 51019

10-Day Weather Forecast

Almanac

Astronomy

Feb. 12, 2016 Rise Set
Actual Time
Civil Twilight
Nautical Twilight
Astronomical Twilight
Moon
Length of Visible Light
Length of Day
Tomorrow will be .
, % of the Moon is Illuminated

Today's Extremes

State Highs State Lows

Community

WunderPhotos

Upload Photos

1,892,478 photos uploaded!

WunderBlog® & News

Nearby

Air Quality

  Air Quality AQ Index Pollutant
Not available.

Snow Depth

Station Depth Elevation

Earthquake Activity

City Distance Mag. Time & Date
Minimum magnitude displayed is 2.5.

Coastal Water Temperatures

Place Temperature

Stations

Nearby Weather Stations

Station Location Temp. Windchill Dew Point Humidity Wind Precip. Elev Updated Type
                   

Watches & Warnings

There are currently no watches in effect.